createdAt,value
2022-10-05T00:01:43.125Z,99.90
2022-10-05T00:04:15.432Z,99.90
2022-10-05T00:06:44.412Z,99.90
2022-10-05T00:09:16.047Z,99.90
2022-10-05T00:11:44.045Z,99.90
2022-10-05T00:14:16.442Z,99.90
2022-10-05T00:16:46.065Z,99.90
2022-10-05T00:19:19.219Z,99.90
2022-10-05T00:21:47.076Z,99.90
2022-10-05T00:24:17.012Z,99.90
2022-10-05T00:26:45.190Z,99.90
2022-10-05T00:29:18.174Z,99.90
2022-10-05T00:31:47.459Z,99.90
2022-10-05T00:34:15.506Z,99.90
2022-10-05T00:36:43.860Z,99.90
2022-10-05T00:39:12.117Z,99.90
2022-10-05T00:41:47.862Z,99.90
2022-10-05T00:44:36.516Z,99.90
2022-10-05T00:47:11.472Z,99.90
2022-10-05T00:49:50.149Z,99.90
2022-10-05T00:52:24.352Z,99.90
2022-10-05T00:54:58.180Z,99.90
2022-10-05T00:57:34.135Z,99.90
2022-10-05T01:00:05.455Z,99.90
2022-10-05T01:02:39.193Z,99.90
2022-10-05T01:05:10.664Z,99.90
2022-10-05T01:07:43.585Z,99.90
2022-10-05T01:10:15.942Z,99.90
2022-10-05T01:12:49.361Z,99.90
2022-10-05T01:15:21.856Z,99.90
2022-10-05T01:17:55.247Z,99.90
2022-10-05T01:20:35.718Z,99.90
2022-10-05T01:23:29.239Z,99.90
2022-10-05T01:26:03.129Z,99.90
2022-10-05T01:28:36.572Z,99.90
2022-10-05T01:31:07.949Z,99.90
2022-10-05T01:33:40.656Z,99.90
2022-10-05T01:36:12.210Z,99.90
2022-10-05T01:38:45.468Z,99.90
2022-10-05T01:41:19.634Z,99.90
2022-10-05T01:43:50.391Z,99.90
2022-10-05T01:46:24.881Z,99.90
2022-10-05T01:49:07.348Z,99.90
2022-10-05T01:51:39.096Z,99.90
2022-10-05T01:54:11.479Z,99.90
2022-10-05T01:56:41.117Z,99.90
2022-10-05T01:59:16.747Z,99.90
2022-10-05T02:01:49.833Z,99.90
2022-10-05T02:04:43.606Z,99.90
2022-10-05T02:07:13.881Z,99.90
2022-10-05T02:09:45.037Z,99.90
2022-10-05T02:12:15.358Z,99.90
2022-10-05T02:14:45.873Z,99.90
2022-10-05T02:17:14.807Z,99.90
2022-10-05T02:19:43.890Z,99.90
2022-10-05T02:22:14.389Z,99.90
2022-10-05T02:24:45.830Z,99.90
2022-10-05T02:27:16.310Z,99.90
2022-10-05T02:29:47.194Z,99.90
2022-10-05T02:32:16.405Z,99.90
2022-10-05T02:34:44.730Z,99.90
2022-10-05T02:37:18.299Z,99.90
2022-10-05T02:39:53.916Z,99.90
2022-10-05T02:42:24.488Z,99.90
2022-10-05T02:44:56.997Z,99.90
2022-10-05T02:47:33.512Z,99.90
2022-10-05T02:50:04.696Z,99.90
2022-10-05T02:52:38.391Z,99.90
2022-10-05T02:55:10.714Z,99.90
2022-10-05T02:57:40.255Z,99.90
2022-10-05T03:00:11.239Z,99.90
2022-10-05T03:02:42.594Z,99.90
2022-10-05T03:05:13.608Z,99.90
2022-10-05T03:07:47.996Z,99.90
2022-10-05T03:10:20.295Z,99.90
2022-10-05T03:12:53.716Z,99.90
2022-10-05T03:15:32.414Z,99.90
2022-10-05T03:18:04.974Z,99.90
2022-10-05T03:20:37.768Z,99.90
2022-10-05T03:23:05.987Z,99.90
2022-10-05T03:25:43.136Z,99.90
2022-10-05T03:28:13.838Z,99.90
2022-10-05T03:30:45.383Z,99.90
2022-10-05T03:33:16.794Z,99.90
2022-10-05T03:35:49.346Z,99.90
2022-10-05T03:38:19.265Z,99.90
2022-10-05T03:40:51.637Z,99.90
2022-10-05T03:43:29.644Z,99.90
2022-10-05T03:46:02.573Z,99.90
2022-10-05T03:48:32.627Z,99.90
2022-10-05T03:51:04.218Z,99.90
2022-10-05T03:53:34.561Z,99.90
2022-10-05T03:56:07.175Z,99.90
2022-10-05T03:58:38.872Z,99.90
2022-10-05T04:01:09.878Z,99.90
2022-10-05T04:03:41.095Z,99.90
2022-10-05T04:06:11.318Z,99.90
2022-10-05T04:08:47.642Z,99.90
2022-10-05T04:11:18.302Z,99.90
2022-10-05T04:13:47.940Z,99.90
2022-10-05T04:16:19.741Z,99.90
2022-10-05T04:18:51.455Z,99.90
2022-10-05T04:21:23.871Z,99.90
2022-10-05T04:23:56.516Z,99.90
2022-10-05T04:26:27.999Z,99.90
2022-10-05T04:28:57.539Z,99.90
2022-10-05T04:31:40.799Z,99.90
2022-10-05T04:34:15.910Z,99.90
2022-10-05T04:36:47.204Z,99.90
2022-10-05T04:39:22.747Z,99.90
2022-10-05T04:41:55.801Z,99.90
2022-10-05T04:44:31.556Z,99.90
2022-10-05T04:47:07.535Z,99.90
2022-10-05T04:49:45.126Z,99.90
2022-10-05T04:52:16.138Z,99.90
2022-10-05T04:54:48.394Z,99.90
2022-10-05T04:57:18.966Z,99.90
2022-10-05T04:59:55.589Z,99.90
2022-10-05T05:02:27.883Z,99.90
2022-10-05T05:05:07.201Z,99.90
2022-10-05T05:07:41.973Z,99.90
2022-10-05T05:10:28.571Z,99.90
2022-10-05T05:13:03.254Z,99.90
2022-10-05T05:15:40.444Z,99.90
2022-10-05T05:18:22.726Z,99.90
2022-10-05T05:20:55.718Z,99.90
2022-10-05T05:23:28.385Z,99.90
2022-10-05T05:25:59.298Z,99.90
2022-10-05T05:28:32.009Z,99.90
2022-10-05T05:31:03.451Z,99.90
2022-10-05T05:33:39.509Z,99.90
2022-10-05T05:36:13.364Z,99.90
2022-10-05T05:38:42.666Z,99.90
2022-10-05T05:41:11.372Z,99.90
2022-10-05T05:43:48.450Z,99.90
2022-10-05T05:46:33.965Z,99.90
2022-10-05T05:49:16.544Z,99.90
2022-10-05T05:51:46.987Z,99.90
2022-10-05T05:54:21.709Z,99.90
2022-10-05T05:56:52.081Z,99.90
2022-10-05T05:59:23.520Z,99.90
2022-10-05T06:01:53.422Z,99.90
2022-10-05T06:04:26.308Z,99.90
2022-10-05T06:06:55.113Z,99.90
2022-10-05T06:09:25.756Z,99.90
2022-10-05T06:11:55.086Z,99.90
2022-10-05T06:14:26.403Z,99.90
2022-10-05T06:16:56.433Z,99.90
2022-10-05T06:19:26.817Z,99.90
2022-10-05T06:21:57.107Z,99.90
2022-10-05T06:24:26.774Z,99.90
2022-10-05T06:27:14.939Z,99.90
2022-10-05T06:29:50.681Z,99.90
2022-10-05T06:32:22.253Z,99.90
2022-10-05T06:34:58.002Z,99.90
2022-10-05T06:37:32.192Z,99.90
2022-10-05T06:40:06.382Z,99.90
2022-10-05T06:42:43.205Z,99.90
2022-10-05T06:45:16.291Z,99.90
2022-10-05T06:47:48.168Z,99.90
2022-10-05T06:50:20.818Z,99.90
2022-10-05T06:52:55.070Z,99.90
2022-10-05T06:55:26.683Z,99.90
2022-10-05T06:58:00.637Z,99.90
2022-10-05T07:00:30.858Z,99.90
2022-10-05T07:03:00.902Z,99.90
2022-10-05T07:05:39.724Z,99.90
2022-10-05T07:08:10.895Z,99.90
2022-10-05T07:10:43.364Z,99.90
2022-10-05T07:13:18.907Z,99.90
2022-10-05T07:15:52.491Z,99.90
2022-10-05T07:18:32.673Z,99.90
2022-10-05T07:21:06.458Z,99.90
2022-10-05T07:23:42.953Z,99.90
2022-10-05T07:26:14.891Z,99.90
2022-10-05T07:28:47.525Z,99.90
2022-10-05T07:31:20.906Z,99.90
2022-10-05T07:33:52.675Z,99.90
2022-10-05T07:36:42.850Z,99.90
2022-10-05T07:39:15.409Z,99.90
2022-10-05T07:41:46.023Z,99.90
2022-10-05T07:44:16.210Z,99.90
2022-10-05T07:46:49.193Z,99.90
2022-10-05T07:49:21.277Z,99.90
2022-10-05T07:51:52.264Z,99.90
2022-10-05T07:54:22.997Z,99.90
2022-10-05T07:56:53.002Z,99.90
2022-10-05T07:59:26.174Z,99.90
2022-10-05T08:01:56.398Z,99.90
2022-10-05T08:04:28.192Z,99.90
2022-10-05T08:06:59.021Z,99.90
2022-10-05T08:09:33.046Z,99.90
2022-10-05T08:12:05.942Z,99.90
2022-10-05T08:14:39.223Z,99.90
2022-10-05T08:17:11.900Z,99.90
2022-10-05T08:19:43.792Z,99.90
2022-10-05T08:22:17.566Z,99.90
2022-10-05T08:24:48.541Z,99.90
2022-10-05T08:27:19.455Z,99.90
2022-10-05T08:29:53.059Z,99.90
2022-10-05T08:32:24.093Z,99.90
2022-10-05T08:34:55.046Z,99.90
2022-10-05T08:37:27.400Z,99.90
2022-10-05T08:39:57.029Z,99.90
2022-10-05T08:42:42.695Z,99.90
2022-10-05T08:45:29.227Z,99.90
2022-10-05T08:48:11.410Z,99.90
2022-10-05T08:50:47.801Z,99.90
2022-10-05T08:53:28.344Z,99.90
2022-10-05T08:56:03.013Z,99.90
2022-10-05T08:58:46.271Z,99.90
2022-10-05T09:01:19.723Z,99.90
2022-10-05T09:03:59.128Z,99.90
2022-10-05T09:06:33.585Z,99.90
2022-10-05T09:09:27.024Z,99.90
2022-10-05T09:12:02.053Z,99.90
2022-10-05T09:14:35.803Z,99.50
2022-10-05T09:17:13.170Z,99.20
2022-10-05T09:19:59.588Z,99.10
2022-10-05T09:22:36.148Z,98.90
2022-10-05T09:25:12.764Z,97.80
2022-10-05T09:27:44.013Z,97.60
2022-10-05T09:30:16.049Z,97.50
2022-10-05T09:33:11.105Z,97.20
2022-10-05T09:35:52.378Z,97.30
2022-10-05T09:38:24.870Z,97.60
2022-10-05T09:41:21.503Z,97.50
2022-10-05T09:44:04.181Z,96.90
2022-10-05T09:46:55.055Z,96.30
2022-10-05T09:49:48.961Z,95.90
2022-10-05T09:52:22.114Z,96.40
2022-10-05T09:55:08.265Z,96.40
2022-10-05T09:57:49.377Z,96.10
2022-10-05T10:00:23.434Z,95.80
2022-10-05T10:03:15.518Z,95.40
2022-10-05T10:06:00.193Z,95.20
2022-10-05T10:08:36.945Z,94.90
2022-10-05T10:11:12.894Z,95.80
2022-10-05T10:13:55.782Z,95.10
2022-10-05T10:16:31.425Z,94.60
2022-10-05T10:19:09.627Z,94.50
2022-10-05T10:21:55.347Z,94.20
2022-10-05T10:24:35.432Z,94.50
2022-10-05T10:27:09.640Z,93.50
2022-10-05T10:29:56.118Z,93.60
2022-10-05T10:32:41.419Z,92.40
2022-10-05T10:35:15.609Z,93.10
2022-10-05T10:38:10.300Z,92.70
2022-10-05T10:40:39.719Z,92.10
2022-10-05T10:43:23.133Z,92.60
2022-10-05T10:45:56.326Z,92.70
2022-10-05T10:48:39.134Z,92.80
2022-10-05T10:51:14.642Z,93.40
2022-10-05T10:53:52.648Z,93.20
2022-10-05T10:56:28.933Z,93.10
2022-10-05T10:59:08.358Z,92.80
2022-10-05T11:01:39.614Z,92.00
2022-10-05T11:04:19.691Z,92.50
2022-10-05T11:06:59.956Z,92.00
2022-10-05T11:09:46.234Z,92.10
2022-10-05T11:12:34.994Z,92.40
2022-10-05T11:15:26.954Z,92.00
2022-10-05T11:18:04.745Z,91.90
2022-10-05T11:20:52.011Z,91.60
2022-10-05T11:23:34.144Z,92.10
2022-10-05T11:26:14.610Z,92.10
2022-10-05T11:28:47.189Z,92.40
2022-10-05T11:31:30.366Z,92.10
2022-10-05T11:34:16.583Z,92.20
2022-10-05T11:37:04.572Z,92.40
2022-10-05T11:39:47.263Z,92.50
2022-10-05T11:42:35.934Z,92.20
2022-10-05T11:45:17.008Z,91.90
2022-10-05T11:47:50.142Z,92.00
2022-10-05T11:50:20.458Z,91.60
2022-10-05T11:52:52.961Z,92.10
2022-10-05T11:55:25.024Z,92.30
2022-10-05T11:57:54.848Z,92.20
2022-10-05T12:00:25.147Z,92.20
2022-10-05T12:03:09.363Z,92.20
2022-10-05T12:05:42.287Z,92.30
2022-10-05T12:08:26.143Z,92.00
2022-10-05T12:10:59.757Z,91.70
2022-10-05T12:13:33.280Z,91.50
2022-10-05T12:16:05.475Z,91.70
2022-10-05T12:18:45.384Z,91.30
2022-10-05T12:21:18.502Z,91.30
2022-10-05T12:23:48.215Z,91.60
2022-10-05T12:26:17.566Z,91.00
2022-10-05T12:28:47.269Z,91.00
2022-10-05T12:31:21.686Z,91.50
2022-10-05T12:33:56.607Z,91.30
2022-10-05T12:36:35.965Z,91.80
2022-10-05T12:39:18.253Z,91.10
2022-10-05T12:41:49.383Z,90.70
2022-10-05T12:44:20.099Z,90.90
2022-10-05T12:46:57.295Z,90.70
2022-10-05T12:49:34.281Z,90.70
2022-10-05T12:52:03.153Z,90.80
2022-10-05T12:54:35.938Z,91.10
2022-10-05T12:57:06.795Z,90.50
2022-10-05T12:59:39.516Z,90.50
2022-10-05T13:02:25.072Z,90.30
2022-10-05T13:04:56.625Z,90.40
2022-10-05T13:07:33.503Z,90.30
2022-10-05T13:10:06.447Z,90.10
2022-10-05T13:12:40.203Z,90.30
2022-10-05T13:15:16.548Z,90.00
2022-10-05T13:17:51.088Z,89.70
2022-10-05T13:20:22.395Z,89.10
2022-10-05T13:22:55.790Z,90.00
2022-10-05T13:25:28.541Z,89.70
2022-10-05T13:28:08.279Z,89.50
2022-10-05T13:30:36.813Z,89.70
2022-10-05T13:33:07.979Z,90.00
2022-10-05T13:35:41.334Z,89.70
2022-10-05T13:38:13.952Z,89.80
2022-10-05T13:40:47.120Z,90.00
2022-10-05T13:43:20.231Z,90.50
2022-10-05T13:45:54.154Z,90.50
2022-10-05T13:48:41.666Z,90.20
2022-10-05T13:51:13.117Z,90.20
2022-10-05T13:53:46.283Z,90.00
2022-10-05T13:56:17.901Z,90.40
2022-10-05T13:58:47.475Z,90.20
2022-10-05T14:01:16.786Z,90.40
2022-10-05T14:04:04.657Z,90.30
2022-10-05T14:06:37.656Z,90.80
2022-10-05T14:09:05.745Z,90.60
2022-10-05T14:11:34.871Z,90.60
2022-10-05T14:14:04.692Z,90.80
2022-10-05T14:16:35.541Z,90.90
2022-10-05T14:19:18.551Z,90.70
2022-10-05T14:21:50.134Z,90.80
2022-10-05T14:24:39.589Z,91.00
2022-10-05T14:27:20.997Z,90.70
2022-10-05T14:29:55.530Z,90.90
2022-10-05T14:32:24.706Z,91.00
2022-10-05T14:35:01.223Z,91.40
2022-10-05T14:37:33.300Z,91.70
2022-10-05T14:40:04.051Z,91.90
2022-10-05T14:42:46.297Z,92.30
2022-10-05T14:45:16.887Z,92.30
2022-10-05T14:47:46.734Z,92.70
2022-10-05T14:50:18.722Z,93.00
2022-10-05T14:52:51.803Z,93.00
2022-10-05T14:55:28.875Z,93.50
2022-10-05T14:58:04.090Z,93.70
2022-10-05T15:00:34.496Z,93.80
2022-10-05T15:03:16.222Z,94.20
2022-10-05T15:05:47.656Z,94.50
2022-10-05T15:08:25.606Z,94.80
2022-10-05T15:10:57.765Z,95.20
2022-10-05T15:13:34.481Z,95.10
2022-10-05T15:16:12.229Z,95.30
2022-10-05T15:18:48.832Z,95.60
2022-10-05T15:21:42.255Z,95.80
2022-10-05T15:24:17.357Z,96.00
2022-10-05T15:26:51.506Z,96.10
2022-10-05T15:29:47.347Z,96.20
2022-10-05T15:32:29.871Z,96.40
2022-10-05T15:35:26.083Z,96.40
2022-10-05T15:38:00.292Z,96.40
2022-10-05T15:40:34.690Z,96.40
2022-10-05T15:43:05.814Z,96.50
2022-10-05T15:45:37.987Z,96.70
2022-10-05T15:48:19.910Z,96.90
2022-10-05T15:50:55.439Z,96.90
2022-10-05T15:53:33.354Z,97.20
2022-10-05T15:56:06.639Z,97.20
2022-10-05T15:58:47.746Z,97.50
2022-10-05T16:01:19.646Z,97.80
2022-10-05T16:03:52.109Z,97.90
2022-10-05T16:06:56.669Z,98.20
2022-10-05T16:09:40.077Z,98.40
2022-10-05T16:12:19.445Z,98.50
2022-10-05T16:14:57.406Z,98.70
2022-10-05T16:17:55.156Z,99.00
2022-10-05T16:20:37.361Z,99.20
2022-10-05T16:23:17.749Z,99.30
2022-10-05T16:26:00.932Z,99.50
2022-10-05T16:28:40.571Z,99.80
2022-10-05T16:31:18.150Z,99.90
2022-10-05T16:33:59.583Z,99.90
2022-10-05T16:36:47.798Z,99.90
2022-10-05T16:39:21.662Z,99.90
2022-10-05T16:41:59.071Z,99.90
2022-10-05T16:44:36.505Z,99.90
2022-10-05T16:47:27.668Z,99.90
2022-10-05T16:50:01.758Z,99.90
2022-10-05T16:52:31.065Z,99.90
2022-10-05T16:55:03.865Z,99.90
2022-10-05T16:57:37.757Z,99.90
2022-10-05T17:00:20.177Z,99.90
2022-10-05T17:03:12.385Z,99.90
2022-10-05T17:06:08.755Z,99.90
2022-10-05T17:09:14.749Z,99.90
2022-10-05T17:11:54.379Z,99.90
2022-10-05T17:14:35.137Z,99.90
2022-10-05T17:17:28.928Z,99.90
2022-10-05T17:20:10.384Z,99.90
2022-10-05T17:22:50.801Z,99.90
2022-10-05T17:25:26.075Z,99.90
2022-10-05T17:27:56.727Z,99.90
2022-10-05T17:30:48.423Z,99.90
2022-10-05T17:33:21.657Z,99.90
2022-10-05T17:36:18.258Z,99.90
2022-10-05T17:38:52.844Z,99.90
2022-10-05T17:41:23.566Z,99.90
2022-10-05T17:44:19.208Z,99.90
2022-10-05T17:46:49.936Z,99.90
2022-10-05T17:49:47.998Z,99.90
2022-10-05T17:52:42.094Z,99.90
2022-10-05T17:55:27.042Z,99.90
2022-10-05T17:57:58.718Z,99.90
2022-10-05T18:00:56.019Z,99.90
2022-10-05T18:03:39.727Z,99.90
2022-10-05T18:06:35.381Z,99.90
2022-10-05T18:09:37.692Z,99.90
2022-10-05T18:12:38.021Z,99.90
2022-10-05T18:15:35.608Z,99.90
2022-10-05T18:18:53.020Z,99.90
2022-10-05T18:21:35.706Z,99.90
2022-10-05T18:24:29.728Z,99.90
2022-10-05T18:27:09.727Z,99.90
2022-10-05T18:30:06.395Z,99.90
2022-10-05T18:33:04.023Z,99.90
2022-10-05T18:35:38.096Z,99.90
2022-10-05T18:38:17.805Z,99.90
2022-10-05T18:40:55.659Z,99.90
2022-10-05T18:43:30.941Z,99.90
2022-10-05T18:46:22.530Z,99.90
2022-10-05T18:49:01.669Z,99.90
2022-10-05T18:51:39.379Z,99.90
2022-10-05T18:54:20.325Z,99.90
2022-10-05T18:56:51.736Z,99.90
2022-10-05T18:59:42.359Z,99.90
2022-10-05T19:02:18.947Z,99.90
2022-10-05T19:05:00.491Z,99.90
2022-10-05T19:07:40.732Z,99.90
2022-10-05T19:10:20.844Z,99.90
2022-10-05T19:13:01.641Z,99.90
2022-10-05T19:15:39.196Z,99.90
2022-10-05T19:18:29.989Z,99.90
2022-10-05T19:21:06.872Z,99.90
2022-10-05T19:23:57.433Z,99.90
2022-10-05T19:26:46.889Z,99.90
2022-10-05T19:29:28.355Z,99.90
2022-10-05T19:32:03.410Z,99.90
2022-10-05T19:34:47.098Z,99.90
2022-10-05T19:37:21.897Z,99.90
2022-10-05T19:39:55.414Z,99.90
2022-10-05T19:42:46.200Z,99.90
2022-10-05T19:45:21.578Z,99.90
2022-10-05T19:48:03.746Z,99.90
2022-10-05T19:50:33.707Z,99.90
2022-10-05T19:53:08.257Z,99.90
2022-10-05T19:55:39.667Z,99.90
2022-10-05T19:58:21.201Z,99.90
2022-10-05T20:00:57.395Z,99.90
2022-10-05T20:03:29.184Z,99.90
2022-10-05T20:05:59.102Z,99.90
2022-10-05T20:08:31.798Z,99.90
2022-10-05T20:11:08.455Z,99.90
2022-10-05T20:13:39.321Z,99.90
2022-10-05T20:16:28.030Z,99.90
2022-10-05T20:19:14.165Z,99.90
2022-10-05T20:21:46.392Z,99.90
2022-10-05T20:24:16.615Z,99.90
2022-10-05T20:27:04.169Z,99.90
2022-10-05T20:29:36.456Z,99.90
2022-10-05T20:32:08.839Z,99.90
2022-10-05T20:34:41.484Z,99.90
2022-10-05T20:37:10.568Z,99.90
2022-10-05T20:39:39.946Z,99.90
2022-10-05T20:42:08.443Z,99.90
2022-10-05T20:44:38.720Z,99.90
2022-10-05T20:47:09.567Z,99.90
2022-10-05T20:49:39.105Z,99.90
2022-10-05T20:52:09.706Z,99.90
2022-10-05T20:54:38.892Z,99.90
2022-10-05T20:57:07.194Z,99.90
2022-10-05T20:59:37.576Z,99.90
2022-10-05T21:02:06.452Z,99.90
2022-10-05T21:04:40.875Z,99.90
2022-10-05T21:07:10.119Z,99.90
2022-10-05T21:09:39.403Z,99.90
2022-10-05T21:12:07.672Z,99.90
2022-10-05T21:14:37.814Z,99.90
2022-10-05T21:17:06.323Z,99.90
2022-10-05T21:19:38.548Z,99.90
2022-10-05T21:22:08.357Z,99.90
2022-10-05T21:24:37.141Z,99.90
2022-10-05T21:27:05.951Z,99.90
2022-10-05T21:29:35.807Z,99.90
2022-10-05T21:32:08.669Z,99.90
2022-10-05T21:34:37.068Z,99.90
2022-10-05T21:37:05.130Z,99.90
2022-10-05T21:39:34.815Z,99.90
2022-10-05T21:42:02.907Z,99.90
2022-10-05T21:44:31.220Z,99.90
2022-10-05T21:46:59.213Z,99.90
2022-10-05T21:49:29.446Z,99.90
2022-10-05T21:51:57.811Z,99.90
2022-10-05T21:54:25.916Z,99.90
2022-10-05T21:56:56.751Z,99.90
2022-10-05T21:59:30.333Z,99.90
2022-10-05T22:01:58.412Z,99.90
2022-10-05T22:04:28.122Z,99.90
2022-10-05T22:06:57.635Z,99.90
2022-10-05T22:09:25.698Z,99.90
2022-10-05T22:11:53.699Z,99.90
2022-10-05T22:14:21.871Z,99.90
2022-10-05T22:16:50.044Z,99.90
2022-10-05T22:19:20.961Z,99.90
2022-10-05T22:21:50.419Z,99.90
2022-10-05T22:24:20.572Z,99.90
2022-10-05T22:26:51.627Z,99.90
2022-10-05T22:29:21.033Z,99.90
2022-10-05T22:31:49.672Z,99.90
2022-10-05T22:34:18.120Z,99.90
2022-10-05T22:36:47.473Z,99.90
2022-10-05T22:39:17.692Z,99.90
2022-10-05T22:41:45.815Z,99.90
2022-10-05T22:44:13.886Z,99.90
2022-10-05T22:46:41.995Z,99.90
2022-10-05T22:49:10.106Z,99.90
2022-10-05T22:51:38.207Z,99.90
2022-10-05T22:54:06.574Z,99.90
2022-10-05T22:56:36.089Z,99.90
2022-10-05T22:59:04.094Z,99.90
2022-10-05T23:01:32.123Z,99.90
2022-10-05T23:04:00.251Z,99.90
2022-10-05T23:06:28.330Z,99.90
2022-10-05T23:08:56.583Z,99.90
2022-10-05T23:11:26.897Z,99.90
2022-10-05T23:13:57.577Z,99.90
2022-10-05T23:16:28.371Z,99.90
2022-10-05T23:18:57.491Z,99.90
2022-10-05T23:21:28.141Z,99.90
2022-10-05T23:23:56.538Z,99.90
2022-10-05T23:26:26.054Z,99.90
2022-10-05T23:28:54.626Z,99.90
2022-10-05T23:31:26.179Z,99.90
2022-10-05T23:33:54.767Z,99.90
2022-10-05T23:36:24.211Z,99.90
2022-10-05T23:38:52.792Z,99.90
2022-10-05T23:41:21.697Z,99.90
2022-10-05T23:43:50.557Z,99.90
2022-10-05T23:46:19.378Z,99.90
2022-10-05T23:48:50.359Z,99.90
2022-10-05T23:51:18.700Z,99.90
2022-10-05T23:53:46.836Z,99.90
2022-10-05T23:56:14.899Z,99.90
2022-10-05T23:58:42.957Z,99.90
